This is the latest recevied weather packets stored in our database for station/object KJ4RDP-13. If no packets are shown the sender has not sent any weather packets the latest 1 day(s).
| Time | Temp. | Humidity | Pressure | Rain* | Wind** | Luminosity | Snow |
|---|---|---|---|---|---|---|---|
| 1778037372 | 11.67° C | 89% | 1014.2 hPa | 0 mm | - | 0 W/m² | - |
| 1778037068 | 11.67° C | 89% | 1014.2 hPa | 0 mm | - | 0 W/m² | - |
| 1778036767 | 12.22° C | 87% | 1014.6 hPa | 0 mm | - | 0 W/m² | - |
| 1778036463 | 12.22° C | 88% | 1014.9 hPa | 0 mm | - | 0 W/m² | - |
| 1778035856 | 12.22° C | 86% | 1014.6 hPa | 0 mm | - | 0 W/m² | - |
| 1778035554 | 12.78° C | 86% | 1014.6 hPa | 0 mm | - | 0 W/m² | - |
| 1778035250 | 12.78° C | 84% | 1014.6 hPa | 0 mm | - | 0 W/m² | - |
| 1778034946 | 12.78° C | 84% | 1014.6 hPa | 0 mm | - | 0 W/m² | - |
| 1778034644 | 12.78° C | 84% | 1014.6 hPa | 0 mm | - | 0 W/m² | - |
| 1778034341 | 13.33° C | 83% | 1014.2 hPa | 0 mm | - | 0 W/m² | - |
| 1778034038 | 13.33° C | 83% | 1014.2 hPa | 0 mm | - | 0 W/m² | - |
| 1778033736 | 13.89° C | 80% | 1014.2 hPa | 0 mm | - | 0 W/m² | - |
| 1778033433 | 14.44° C | 78% | 1014.2 hPa | 0 mm | - | 0 W/m² | - |
| 1778032828 | 14.44° C | 78% | 1014.2 hPa | 0 mm | - | 0 W/m² | - |
| 1778032525 | 15° C | 77% | 1014.2 hPa | 0 mm | - | 0 W/m² | - |
| 1778032222 | 15.56° C | 76% | 1013.8 hPa | 0 mm | - | 0 W/m² | - |
| 1778031615 | 15.56° C | 71% | 1014.2 hPa | 0 mm | - | 0 W/m² | - |
| 1778031010 | 15.56° C | 77% | 1013.8 hPa | 0 mm | - | 0 W/m² | - |
| 1778030706 | 15.56° C | 76% | 1014.2 hPa | 0 mm | - | 0 W/m² | - |
| 1778029496 | 15° C | 78% | 1014.2 hPa | 0 mm | - | 0 W/m² | - |
| 1778029191 | 15° C | 78% | 1013.8 hPa | 0 mm | - | 0 W/m² | - |
| 1778028584 | 15.56° C | 72% | 1014.2 hPa | 0 mm | - | 0 W/m² | - |
| 1778027978 | 16.67° C | 70% | 1014.2 hPa | 0 mm | - | 0 W/m² | - |
| 1778027067 | 18.33° C | 61% | 1013.8 hPa | 0 mm | - | 0 W/m² | - |
| 1778026763 | 18.33° C | 58% | 1014.2 hPa | 0 mm | - | 0 W/m² | - |
* Rain latest hour (hover to see other rain measurements)
** Current wind speed in m/s (hover to see current wind gust speed)